Time;durP1;ratioP1;P1;durP2;ratioP2;P2;SDS_P1;SDS_P2;PMS_P1;PMS_P2;Temp;Humidity;BMP_temperature;BMP_pressure;BME280_temperature;BME280_humidity;BME280_pressure;Samples;Min_cycle;Max_cycle;Signal;HPM_P1;HPM_P2
2022/12/10 00:02:20;;;;;;;78.25;33.22;;;;;;;;;;5054535;28;20487;-74
2022/12/10 00:04:48;;;;;;;73.15;31.98;;;;;;;;;;5054223;28;20445;-75
2022/12/10 00:07:14;;;;;;;73.57;34.20;;;;;;;;;;5039184;28;20051;-75
2022/12/10 00:09:40;;;;;;;88.22;34.85;;;;;;;;;;5034328;28;20060;-74
2022/12/10 00:12:06;;;;;;;67.55;31.92;;;;;;;;;;5050203;28;20037;-74
2022/12/10 00:14:32;;;;;;;69.05;32.72;;;;;;;;;;5047695;28;20044;-74
2022/12/10 00:16:58;;;;;;;73.10;33.80;;;;;;;;;;5035675;28;20053;-74
2022/12/10 00:19:24;;;;;;;72.97;33.20;;;;;;;;;;5051752;28;20106;-74
2022/12/10 00:21:50;;;;;;;86.82;35.90;;;;;;;;;;5052856;28;20060;-75
2022/12/10 00:24:16;;;;;;;76.03;33.30;;;;;;;;;;5052274;28;20057;-75
2022/12/10 00:26:42;;;;;;;68.80;31.58;;;;;;;;;;5054086;28;20045;-75
2022/12/10 00:29:10;;;;;;;62.30;31.58;;;;;;;;;;5052729;28;20048;-75
2022/12/10 00:31:37;;;;;;;63.33;31.17;;;;;;;;;;5049311;28;20037;-75
2022/12/10 00:34:05;;;;;;;56.42;29.63;;;;;;;;;;5035426;28;20041;-75
2022/12/10 00:36:32;;;;;;;77.30;43.20;;;;;;;;;;5047599;28;20041;-75
2022/12/10 00:38:59;;;;;;;82.57;44.85;;;;;;;;;;5054560;28;20099;-75
2022/12/10 00:41:25;;;;;;;65.75;34.20;;;;;;;;;;5053851;28;20506;-75
2022/12/10 00:43:51;;;;;;;55.08;29.70;;;;;;;;;;5037080;28;20045;-75
2022/12/10 00:46:18;;;;;;;57.60;31.85;;;;;;;;;;5054654;28;20052;-75
2022/12/10 00:48:44;;;;;;;64.95;35.63;;;;;;;;;;5036575;28;20562;-74
2022/12/10 00:51:10;;;;;;;74.68;38.33;;;;;;;;;;5036833;28;20045;-75
2022/12/10 00:53:37;;;;;;;82.68;37.05;;;;;;;;;;5051148;28;20048;-75
2022/12/10 00:56:03;;;;;;;72.55;32.72;;;;;;;;;;5050000;28;20111;-75
2022/12/10 00:58:31;;;;;;;68.75;33.42;;;;;;;;;;5053351;28;20072;-75
2022/12/10 01:01:26;;;;;;;61.28;33.53;;;;;;;;;;5050195;28;20466;-74
2022/12/10 01:03:54;;;;;;;57.88;31.17;;;;;;;;;;5033506;28;20055;-75
2022/12/10 01:06:22;;;;;;;62.05;32.28;;;;;;;;;;5052502;28;20041;-75
2022/12/10 01:08:49;;;;;;;55.53;31.52;;;;;;;;;;5052686;28;20044;-74
2022/12/10 01:11:17;;;;;;;60.47;33.13;;;;;;;;;;5048769;28;20128;-74
2022/12/10 01:13:43;;;;;;;65.95;33.88;;;;;;;;;;5033885;28;20048;-74
2022/12/10 01:16:10;;;;;;;63.22;34.10;;;;;;;;;;5050218;28;20049;-74
2022/12/10 01:18:37;;;;;;;79.25;43.53;;;;;;;;;;5034616;28;20049;-74
2022/12/10 01:21:04;;;;;;;75.07;43.88;;;;;;;;;;5052030;28;20041;-75
2022/12/10 01:23:32;;;;;;;70.50;35.20;;;;;;;;;;5036051;28;20510;-74
2022/12/10 01:26:06;;;;;;;62.45;34.67;;;;;;;;;;5049593;28;20052;-74
2022/12/10 01:28:33;;;;;;;65.63;33.97;;;;;;;;;;5033338;28;20041;-74
2022/12/10 01:31:02;;;;;;;63.45;33.63;;;;;;;;;;5047734;28;20056;-75
2022/12/10 01:33:29;;;;;;;58.25;32.97;;;;;;;;;;5052241;28;20037;-75
2022/12/10 01:35:55;;;;;;;64.40;34.45;;;;;;;;;;5053585;28;20126;-75
2022/12/10 01:38:22;;;;;;;66.35;34.88;;;;;;;;;;5052521;28;20544;-75
2022/12/10 01:40:48;;;;;;;61.80;34.42;;;;;;;;;;5053310;28;20056;-75
2022/12/10 01:43:15;;;;;;;64.65;34.78;;;;;;;;;;5052712;28;20384;-75
2022/12/10 01:45:41;;;;;;;66.88;34.60;;;;;;;;;;5053441;28;20052;-75
2022/12/10 01:48:07;;;;;;;63.97;33.83;;;;;;;;;;5040570;28;20053;-75
2022/12/10 01:50:33;;;;;;;69.20;34.80;;;;;;;;;;5015742;28;20053;-75
2022/12/10 01:52:59;;;;;;;69.65;34.80;;;;;;;;;;5015923;28;20053;-74
2022/12/10 01:55:55;;;;;;;72.00;35.13;;;;;;;;;;5047405;28;20045;-75
2022/12/10 01:58:21;;;;;;;69.40;34.60;;;;;;;;;;5036444;28;20375;-75
2022/12/10 02:00:52;;;;;;;76.32;35.10;;;;;;;;;;5051041;28;20069;-75
2022/12/10 02:03:22;;;;;;;76.68;36.13;;;;;;;;;;5042566;28;20372;-74
2022/12/10 02:05:52;;;;;;;70.30;34.10;;;;;;;;;;5047130;28;20048;-75
2022/12/10 02:08:18;;;;;;;70.43;34.67;;;;;;;;;;5050326;28;20045;-75
2022/12/10 02:11:17;;;;;;;76.82;35.40;;;;;;;;;;5049655;28;20041;-75
2022/12/10 02:13:46;;;;;;;68.80;32.47;;;;;;;;;;4979625;28;20052;-75
2022/12/10 02:16:18;;;;;;;75.40;36.22;;;;;;;;;;5050898;28;20518;-75
2022/12/10 02:18:49;;;;;;;76.30;35.38;;;;;;;;;;5031855;28;20396;-75
2022/12/10 02:21:15;;;;;;;;;;;;;;;;;;5049371;28;20044;-75
2022/12/10 02:23:47;;;;;;;69.97;32.38;;;;;;;;;;5015760;28;19976;-75
2022/12/10 02:26:21;;;;;;;70.97;34.90;;;;;;;;;;5048941;28;20052;-75
2022/12/10 02:28:47;;;;;;;72.38;34.35;;;;;;;;;;5045308;28;20082;-74
2022/12/10 02:31:17;;;;;;;72.65;35.22;;;;;;;;;;5031883;28;20049;-75
2022/12/10 02:33:48;;;;;;;69.25;34.28;;;;;;;;;;5032127;28;20048;-75
2022/12/10 02:36:14;;;;;;;71.85;34.20;;;;;;;;;;5051771;28;20541;-75
2022/12/10 02:38:41;;;;;;;75.53;35.28;;;;;;;;;;5052725;28;20128;-75
2022/12/10 02:41:15;;;;;;;69.53;34.15;;;;;;;;;;5052528;28;20041;-75
2022/12/10 02:43:41;;;;;;;68.35;34.65;;;;;;;;;;5052711;28;20048;-75
2022/12/10 02:46:07;;;;;;;74.47;35.03;;;;;;;;;;5055211;28;20105;-75
2022/12/10 02:48:34;;;;;;;77.68;35.38;;;;;;;;;;5056537;28;20041;-75
2022/12/10 02:51:00;;;;;;;75.22;35.42;;;;;;;;;;5056128;28;20044;-75
2022/12/10 02:53:26;;;;;;;73.13;35.00;;;;;;;;;;5052616;28;20045;-75
2022/12/10 02:56:11;;;;;;;76.53;36.80;;;;;;;;;;5056486;28;20041;-75
2022/12/10 02:58:55;;;;;;;72.85;34.30;;;;;;;;;;5038511;28;20045;-76
2022/12/10 03:01:26;;;;;;;73.88;35.45;;;;;;;;;;5034731;28;20084;-75
2022/12/10 03:04:06;;;;;;;77.20;35.42;;;;;;;;;;5045980;28;20045;-75
2022/12/10 03:06:38;;;;;;;82.20;37.53;;;;;;;;;;5053383;28;20115;-75
2022/12/10 03:09:04;;;;;;;77.05;35.28;;;;;;;;;;5054050;28;20152;-75
2022/12/10 03:11:31;;;;;;;75.70;36.47;;;;;;;;;;5052700;28;20053;-75
2022/12/10 03:14:00;;;;;;;79.90;37.40;;;;;;;;;;5037324;28;20040;-75
2022/12/10 03:16:29;;;;;;;77.20;36.53;;;;;;;;;;5052854;28;20045;-75
2022/12/10 03:19:00;;;;;;;90.53;38.67;;;;;;;;;;5055850;28;20106;-75
2022/12/10 03:21:27;;;;;;;;;;;;;;;;;;5051421;28;20048;-74
2022/12/10 03:23:53;;;;;;;79.07;35.17;;;;;;;;;;5035276;28;19921;-75
2022/12/10 03:26:19;;;;;;;79.80;37.58;;;;;;;;;;5052205;28;20072;-75
2022/12/10 03:28:48;;;;;;;83.65;38.00;;;;;;;;;;5053502;28;20499;-75
2022/12/10 03:31:15;;;;;;;83.85;38.10;;;;;;;;;;5046403;28;20053;-75
2022/12/10 03:33:41;;;;;;;83.00;40.17;;;;;;;;;;5052133;28;20041;-75
2022/12/10 03:36:08;;;;;;;81.55;37.97;;;;;;;;;;5045046;28;20128;-74
2022/12/10 03:38:35;;;;;;;78.82;37.25;;;;;;;;;;5053534;28;20041;-75
2022/12/10 03:41:01;;;;;;;87.13;37.40;;;;;;;;;;5055972;28;20048;-75
2022/12/10 03:43:27;;;;;;;80.22;38.33;;;;;;;;;;5055651;28;20388;-75
2022/12/10 03:45:53;;;;;;;84.30;39.63;;;;;;;;;;5055095;28;20053;-75
2022/12/10 03:48:19;;;;;;;81.30;38.35;;;;;;;;;;5037810;28;20545;-75
2022/12/10 03:50:45;;;;;;;74.78;37.05;;;;;;;;;;5055634;28;20075;-75
2022/12/10 03:53:11;;;;;;;83.38;38.80;;;;;;;;;;5020216;28;20101;-75
2022/12/10 03:55:37;;;;;;;77.88;37.80;;;;;;;;;;5054046;28;20052;-75
2022/12/10 03:58:03;;;;;;;77.60;37.53;;;;;;;;;;5023106;28;20077;-75
2022/12/10 04:00:29;;;;;;;80.50;37.63;;;;;;;;;;5054487;28;20057;-75
2022/12/10 04:02:56;;;;;;;81.68;39.10;;;;;;;;;;5055241;28;20049;-75
2022/12/10 04:05:22;;;;;;;80.97;38.00;;;;;;;;;;5055226;28;20045;-74
2022/12/10 04:07:48;;;;;;;83.65;39.08;;;;;;;;;;5048904;28;20041;-75
2022/12/10 04:10:14;;;;;;;81.47;37.30;;;;;;;;;;5042749;28;20053;-74
2022/12/10 04:12:40;;;;;;;84.90;38.10;;;;;;;;;;5051841;28;20055;-74
2022/12/10 04:17:52;;;;;;;82.38;38.25;;;;;;;;;;5035083;28;20057;-74
2022/12/10 04:28:33;;;;;;;83.63;39.08;;;;;;;;;;5047573;28;20061;-74
2022/12/10 04:30:59;;;;;;;85.60;38.53;;;;;;;;;;5052895;28;20057;-73
2022/12/10 04:33:25;;;;;;;85.78;39.03;;;;;;;;;;5033603;28;20049;-74
2022/12/10 04:35:51;;;;;;;86.57;37.67;;;;;;;;;;5052534;28;20453;-74
2022/12/10 04:38:17;;;;;;;86.10;39.05;;;;;;;;;;5052570;28;20388;-74
2022/12/10 04:40:43;;;;;;;83.35;39.75;;;;;;;;;;5052879;28;20055;-75
2022/12/10 04:43:09;;;;;;;91.18;39.28;;;;;;;;;;5033972;28;20074;-74
2022/12/10 04:45:35;;;;;;;86.60;39.80;;;;;;;;;;5050537;28;20037;-75
2022/12/10 04:48:01;;;;;;;90.05;38.88;;;;;;;;;;5034397;28;20102;-75
2022/12/10 04:50:27;;;;;;;86.45;40.25;;;;;;;;;;5054216;28;20040;-75
2022/12/10 04:52:53;;;;;;;95.78;39.88;;;;;;;;;;5052930;28;20045;-74
2022/12/10 04:55:20;;;;;;;97.60;41.05;;;;;;;;;;5048056;28;20056;-74
2022/12/10 04:57:46;;;;;;;87.68;39.72;;;;;;;;;;5049635;28;20053;-74
2022/12/10 05:00:12;;;;;;;88.55;39.05;;;;;;;;;;5048764;28;20052;-74
2022/12/10 05:02:38;;;;;;;90.95;41.58;;;;;;;;;;5051685;28;20491;-74
2022/12/10 05:05:04;;;;;;;83.22;40.15;;;;;;;;;;5050248;28;20500;-74
2022/12/10 05:07:30;;;;;;;92.43;40.47;;;;;;;;;;5050573;28;20403;-74
2022/12/10 05:09:56;;;;;;;90.47;41.42;;;;;;;;;;5051775;28;20061;-74
2022/12/10 05:12:23;;;;;;;88.88;40.42;;;;;;;;;;5053075;28;20053;-74
2022/12/10 05:14:49;;;;;;;91.45;41.17;;;;;;;;;;5051335;28;20040;-74
2022/12/10 05:17:15;;;;;;;90.88;40.88;;;;;;;;;;5032320;28;20098;-74
2022/12/10 05:19:41;;;;;;;91.93;41.33;;;;;;;;;;5051045;28;20503;-75
2022/12/10 05:24:53;;;;;;;89.78;42.50;;;;;;;;;;5044971;28;20060;-75
2022/12/10 05:27:19;;;;;;;87.25;42.15;;;;;;;;;;5031585;28;20520;-74
2022/12/10 05:29:45;;;;;;;85.75;40.45;;;;;;;;;;5051204;28;20470;-75
2022/12/10 05:32:11;;;;;;;93.60;42.42;;;;;;;;;;5018009;28;20059;-76
2022/12/10 05:34:37;;;;;;;93.15;41.88;;;;;;;;;;5048401;28;20051;-74
2022/12/10 05:37:03;;;;;;;89.70;41.80;;;;;;;;;;5048970;28;20045;-74
2022/12/10 05:39:29;;;;;;;95.78;41.47;;;;;;;;;;5035947;28;20077;-74
2022/12/10 05:41:55;;;;;;;91.13;42.28;;;;;;;;;;5052865;28;20052;-75
2022/12/10 05:44:21;;;;;;;94.65;41.10;;;;;;;;;;5053266;28;20049;-74
2022/12/10 05:46:47;;;;;;;98.45;41.63;;;;;;;;;;5052528;28;20123;-74
2022/12/10 05:49:14;;;;;;;97.70;42.90;;;;;;;;;;5052437;28;20045;-74
2022/12/10 05:51:40;;;;;;;96.13;42.65;;;;;;;;;;5053272;28;20060;-74
2022/12/10 05:54:08;;;;;;;97.40;42.38;;;;;;;;;;5053335;28;20483;-75
2022/12/10 05:56:35;;;;;;;100.38;42.88;;;;;;;;;;5033463;28;20096;-74
2022/12/10 05:59:02;;;;;;;104.03;42.95;;;;;;;;;;5046415;28;20060;-75
2022/12/10 06:01:30;;;;;;;98.75;42.05;;;;;;;;;;5044090;28;20053;-74
2022/12/10 06:03:57;;;;;;;98.50;42.97;;;;;;;;;;5039804;28;20045;-74
2022/12/10 06:06:24;;;;;;;105.60;42.63;;;;;;;;;;5042232;28;20532;-74
2022/12/10 06:08:50;;;;;;;101.25;43.22;;;;;;;;;;5052390;28;20044;-74
2022/12/10 06:11:16;;;;;;;96.47;41.38;;;;;;;;;;5033204;28;20048;-75
2022/12/10 06:13:43;;;;;;;97.72;41.78;;;;;;;;;;5018589;28;20411;-75
2022/12/10 06:16:10;;;;;;;102.78;42.22;;;;;;;;;;5051191;28;20086;-75
2022/12/10 06:18:36;;;;;;;101.15;42.28;;;;;;;;;;5033941;28;20127;-75
2022/12/10 06:21:07;;;;;;;99.85;43.17;;;;;;;;;;5046924;28;20041;-75
2022/12/10 06:23:34;;;;;;;106.63;44.33;;;;;;;;;;5051320;28;20052;-75
2022/12/10 06:26:04;;;;;;;106.63;42.15;;;;;;;;;;5050797;28;20048;-75
2022/12/10 06:28:30;;;;;;;99.35;42.40;;;;;;;;;;5050481;28;20044;-75
2022/12/10 06:30:58;;;;;;;94.80;40.35;;;;;;;;;;5033561;28;20049;-74
2022/12/10 06:33:24;;;;;;;98.15;42.60;;;;;;;;;;5049821;28;20056;-76
2022/12/10 06:35:50;;;;;;;102.72;41.92;;;;;;;;;;5049393;28;20090;-75
2022/12/10 06:38:16;;;;;;;109.38;42.38;;;;;;;;;;5044477;28;20052;-75
2022/12/10 06:40:42;;;;;;;101.60;43.17;;;;;;;;;;5050198;28;20045;-75
2022/12/10 06:43:08;;;;;;;107.80;43.17;;;;;;;;;;5050981;28;20068;-75
2022/12/10 06:45:34;;;;;;;104.82;42.05;;;;;;;;;;5048194;28;20087;-75
2022/12/10 06:48:00;;;;;;;110.20;45.08;;;;;;;;;;5047803;28;20053;-74
2022/12/10 06:50:26;;;;;;;113.65;43.22;;;;;;;;;;5052003;28;20123;-75
2022/12/10 06:52:52;;;;;;;114.53;44.88;;;;;;;;;;5049224;28;20049;-75
2022/12/10 06:55:18;;;;;;;111.07;43.35;;;;;;;;;;5050461;28;20581;-75
2022/12/10 06:57:44;;;;;;;114.95;45.20;;;;;;;;;;5051140;28;20044;-75
2022/12/10 07:00:11;;;;;;;114.40;44.08;;;;;;;;;;5049830;28;20049;-74
2022/12/10 07:02:37;;;;;;;117.15;44.38;;;;;;;;;;5049936;28;20040;-75
2022/12/10 07:05:03;;;;;;;114.78;44.75;;;;;;;;;;5049082;28;20037;-75
2022/12/10 07:07:29;;;;;;;111.18;43.70;;;;;;;;;;5049186;28;20110;-76
2022/12/10 07:09:55;;;;;;;107.60;44.10;;;;;;;;;;5047768;28;20045;-75
2022/12/10 07:12:21;;;;;;;114.15;44.05;;;;;;;;;;5033004;28;20049;-75
2022/12/10 07:14:47;;;;;;;123.63;44.85;;;;;;;;;;5051584;28;20103;-75
2022/12/10 07:17:13;;;;;;;117.05;44.78;;;;;;;;;;5049873;28;20128;-75
2022/12/10 07:19:39;;;;;;;120.13;44.65;;;;;;;;;;5040223;28;20041;-75
2022/12/10 07:22:06;;;;;;;111.53;44.30;;;;;;;;;;5031805;28;20080;-75
2022/12/10 07:24:32;;;;;;;121.82;44.05;;;;;;;;;;5035991;28;20077;-76
2022/12/10 07:26:58;;;;;;;120.75;44.38;;;;;;;;;;5031376;28;20049;-75
2022/12/10 07:29:26;;;;;;;120.90;45.05;;;;;;;;;;5047579;28;20066;-75
2022/12/10 07:31:54;;;;;;;115.38;44.72;;;;;;;;;;5051282;28;20041;-75
2022/12/10 07:34:20;;;;;;;119.75;45.55;;;;;;;;;;5047450;28;20049;-75
2022/12/10 07:36:46;;;;;;;111.70;44.22;;;;;;;;;;5031086;28;20047;-75
2022/12/10 07:39:17;;;;;;;107.40;43.53;;;;;;;;;;5054966;28;20045;-75
2022/12/10 07:41:44;;;;;;;104.60;43.70;;;;;;;;;;5036053;28;20059;-76
2022/12/10 07:44:11;;;;;;;115.43;45.40;;;;;;;;;;5052683;28;20453;-75
2022/12/10 07:46:38;;;;;;;109.78;45.67;;;;;;;;;;5045866;28;20137;-75
2022/12/10 07:49:04;;;;;;;108.85;43.40;;;;;;;;;;5030199;28;20385;-75
2022/12/10 07:51:30;;;;;;;109.00;44.38;;;;;;;;;;5039461;28;20037;-75
2022/12/10 07:53:57;;;;;;;105.75;43.92;;;;;;;;;;5044295;28;20495;-74
2022/12/10 07:56:24;;;;;;;99.90;43.20;;;;;;;;;;5046640;28;20083;-75
2022/12/10 07:58:50;;;;;;;108.68;44.30;;;;;;;;;;5047969;28;20048;-75
2022/12/10 08:01:18;;;;;;;109.70;43.65;;;;;;;;;;5042277;28;20046;-77
2022/12/10 08:03:44;;;;;;;112.22;43.67;;;;;;;;;;5047605;28;20057;-75
2022/12/10 08:06:14;;;;;;;107.25;42.70;;;;;;;;;;5045546;28;20392;-75
2022/12/10 08:08:41;;;;;;;105.40;42.95;;;;;;;;;;5034502;28;20108;-75
2022/12/10 08:11:07;;;;;;;114.68;43.08;;;;;;;;;;5048313;28;20041;-75
2022/12/10 08:13:34;;;;;;;105.70;43.25;;;;;;;;;;5053112;28;20129;-75
2022/12/10 08:16:02;;;;;;;105.22;42.80;;;;;;;;;;5048133;28;20045;-75
2022/12/10 08:18:28;;;;;;;111.82;43.75;;;;;;;;;;5036342;28;20537;-75
2022/12/10 08:20:54;;;;;;;105.85;42.25;;;;;;;;;;5047067;28;20045;-76
2022/12/10 08:23:20;;;;;;;106.68;42.20;;;;;;;;;;5049030;28;20041;-76
2022/12/10 08:25:46;;;;;;;110.05;44.50;;;;;;;;;;5052856;28;20056;-75
2022/12/10 08:28:12;;;;;;;111.53;44.22;;;;;;;;;;5052108;28;20049;-75
2022/12/10 08:30:38;;;;;;;111.22;45.10;;;;;;;;;;5054097;28;20056;-75
2022/12/10 08:33:04;;;;;;;111.57;44.20;;;;;;;;;;5033900;28;20049;-75
2022/12/10 08:35:30;;;;;;;117.32;47.05;;;;;;;;;;5046866;28;20083;-75
2022/12/10 08:37:56;;;;;;;113.15;44.72;;;;;;;;;;5048277;28;20478;-76
2022/12/10 08:40:22;;;;;;;109.40;45.15;;;;;;;;;;5053096;28;20057;-75
2022/12/10 08:42:48;;;;;;;108.30;44.58;;;;;;;;;;5034891;28;20056;-75
2022/12/10 08:45:14;;;;;;;109.50;44.88;;;;;;;;;;5053955;28;20051;-75
2022/12/10 08:47:40;;;;;;;111.80;45.70;;;;;;;;;;5050561;28;20037;-75
2022/12/10 08:50:06;;;;;;;107.05;43.80;;;;;;;;;;5051998;28;20045;-75
2022/12/10 08:52:32;;;;;;;105.93;43.03;;;;;;;;;;5053527;28;20510;-75
2022/12/10 08:54:58;;;;;;;107.75;43.88;;;;;;;;;;5053392;28;20465;-75
2022/12/10 08:57:25;;;;;;;102.72;45.88;;;;;;;;;;5050528;28;20052;-75
2022/12/10 08:59:51;;;;;;;103.60;42.95;;;;;;;;;;5033069;28;20053;-75
2022/12/10 09:02:17;;;;;;;100.90;43.97;;;;;;;;;;5052929;28;20423;-75
2022/12/10 09:04:45;;;;;;;110.85;45.70;;;;;;;;;;5051660;28;20041;-79
2022/12/10 09:07:11;;;;;;;105.10;44.08;;;;;;;;;;5047264;28;20050;-76
2022/12/10 09:09:37;;;;;;;112.05;43.92;;;;;;;;;;5051188;28;20049;-79
2022/12/10 09:12:04;;;;;;;112.32;46.67;;;;;;;;;;5053450;28;20042;-73
2022/12/10 09:14:30;;;;;;;100.70;43.25;;;;;;;;;;5035438;28;20049;-73
2022/12/10 09:16:56;;;;;;;117.63;48.70;;;;;;;;;;5052266;28;20053;-73
2022/12/10 09:19:22;;;;;;;163.20;63.00;;;;;;;;;;5053251;28;20053;-75
2022/12/10 09:21:48;;;;;;;108.60;47.88;;;;;;;;;;5035694;28;20045;-73
2022/12/10 09:24:14;;;;;;;106.43;45.38;;;;;;;;;;5052163;28;20478;-76
2022/12/10 09:26:40;;;;;;;121.97;50.30;;;;;;;;;;5048293;28;20049;-73
2022/12/10 09:29:06;;;;;;;130.38;57.15;;;;;;;;;;5049528;28;20063;-74
2022/12/10 09:31:32;;;;;;;157.73;74.55;;;;;;;;;;5051122;28;20103;-74
2022/12/10 09:33:58;;;;;;;133.98;67.00;;;;;;;;;;5052579;28;20521;-74
2022/12/10 09:36:24;;;;;;;111.88;52.63;;;;;;;;;;5040068;28;20041;-76
2022/12/10 09:38:51;;;;;;;109.18;49.83;;;;;;;;;;5032891;28;20045;-74
2022/12/10 09:41:30;;;;;;;204.60;110.68;;;;;;;;;;5018748;28;20045;-75
2022/12/10 09:44:03;;;;;;;118.15;55.95;;;;;;;;;;5052187;28;20102;-74
2022/12/10 09:46:33;;;;;;;130.60;64.10;;;;;;;;;;5051954;28;20037;-75
2022/12/10 09:49:21;;;;;;;116.03;59.47;;;;;;;;;;5050387;28;20052;-75
2022/12/10 09:51:47;;;;;;;105.28;51.47;;;;;;;;;;5033044;28;20045;-75
2022/12/10 09:54:34;;;;;;;100.68;48.92;;;;;;;;;;5047794;28;20049;-74
2022/12/10 09:57:01;;;;;;;102.97;47.40;;;;;;;;;;5036428;28;20049;-75
2022/12/10 09:59:37;;;;;;;103.13;45.35;;;;;;;;;;5050724;28;20060;-75
2022/12/10 10:02:23;;;;;;;122.72;61.30;;;;;;;;;;5039997;28;20045;-75
2022/12/10 10:04:50;;;;;;;101.70;51.45;;;;;;;;;;5051178;28;20343;-74
2022/12/10 10:07:22;;;;;;;102.85;50.72;;;;;;;;;;5050408;28;20060;-75
2022/12/10 10:09:48;;;;;;;97.65;46.17;;;;;;;;;;5049851;28;20045;-74
2022/12/10 10:12:15;;;;;;;96.97;45.72;;;;;;;;;;5051656;28;20049;-74
2022/12/10 10:14:43;;;;;;;101.28;49.17;;;;;;;;;;5050893;28;20471;-74
2022/12/10 10:17:17;;;;;;;100.30;49.22;;;;;;;;;;5052004;28;20041;-75
2022/12/10 10:19:44;;;;;;;148.75;74.82;;;;;;;;;;5049974;28;20068;-74
2022/12/10 10:22:11;;;;;;;114.40;59.13;;;;;;;;;;5041429;28;20058;-74
2022/12/10 10:24:39;;;;;;;103.22;51.42;;;;;;;;;;5047100;28;20048;-74
2022/12/10 10:27:17;;;;;;;99.43;46.78;;;;;;;;;;5044095;28;20107;-74
2022/12/10 10:29:46;;;;;;;100.13;45.20;;;;;;;;;;5045577;28;20053;-73
2022/12/10 10:32:16;;;;;;;94.55;44.17;;;;;;;;;;5045685;28;20041;-74
2022/12/10 10:34:42;;;;;;;95.25;46.47;;;;;;;;;;5029761;28;20037;-74
2022/12/10 10:37:15;;;;;;;87.32;42.88;;;;;;;;;;5046141;28;20568;-74
2022/12/10 10:39:46;;;;;;;89.93;44.88;;;;;;;;;;5047235;28;20445;-74
2022/12/10 10:42:20;;;;;;;98.72;48.90;;;;;;;;;;5047077;28;20053;-74
2022/12/10 10:44:46;;;;;;;87.43;43.53;;;;;;;;;;5049286;28;20105;-74
2022/12/10 10:47:25;;;;;;;92.57;46.40;;;;;;;;;;5051377;28;20049;-74
2022/12/10 10:49:53;;;;;;;94.07;48.88;;;;;;;;;;5051092;28;20898;-74
2022/12/10 10:52:19;;;;;;;107.68;57.35;;;;;;;;;;5050360;28;20414;-74
2022/12/10 10:54:45;;;;;;;89.78;48.35;;;;;;;;;;5029436;28;20043;-74
2022/12/10 10:57:30;;;;;;;87.70;46.30;;;;;;;;;;5045682;28;20128;-74
2022/12/10 11:00:01;;;;;;;90.03;46.05;;;;;;;;;;5046078;28;20083;-73
2022/12/10 11:02:34;;;;;;;83.30;44.53;;;;;;;;;;5044886;28;20048;-73
2022/12/10 11:05:05;;;;;;;78.65;42.05;;;;;;;;;;5044725;28;20041;-77
2022/12/10 11:07:35;;;;;;;84.15;42.42;;;;;;;;;;5049081;28;20130;-74
2022/12/10 11:10:01;;;;;;;80.68;41.22;;;;;;;;;;5030029;28;20061;-74
2022/12/10 11:12:33;;;;;;;86.38;44.30;;;;;;;;;;5046527;28;20725;-74
2022/12/10 11:14:59;;;;;;;84.05;44.72;;;;;;;;;;5046648;28;20404;-73
2022/12/10 11:17:26;;;;;;;85.13;43.92;;;;;;;;;;5048340;28;20049;-74
2022/12/10 11:19:57;;;;;;;88.68;45.38;;;;;;;;;;5050575;28;20041;-73
2022/12/10 11:22:25;;;;;;;86.53;43.15;;;;;;;;;;5054794;28;20538;-74
2022/12/10 11:24:51;;;;;;;85.50;42.33;;;;;;;;;;5055405;28;20555;-74
2022/12/10 11:27:23;;;;;;;90.32;44.90;;;;;;;;;;5043290;28;20045;-73
2022/12/10 11:29:55;;;;;;;87.45;43.58;;;;;;;;;;5047299;28;20041;-74
2022/12/10 11:32:36;;;;;;;89.70;45.75;;;;;;;;;;5047018;28;20053;-73
2022/12/10 11:35:02;;;;;;;92.28;44.38;;;;;;;;;;5048019;28;20102;-74
2022/12/10 11:37:34;;;;;;;89.35;46.00;;;;;;;;;;5045787;28;20048;-73
2022/12/10 11:40:06;;;;;;;103.18;52.25;;;;;;;;;;5029544;28;20041;-73
2022/12/10 11:42:44;;;;;;;99.75;50.58;;;;;;;;;;5048454;28;20037;-73
2022/12/10 11:45:40;;;;;;;92.80;46.38;;;;;;;;;;5046592;28;20049;-74
2022/12/10 11:48:22;;;;;;;91.25;45.45;;;;;;;;;;4988405;28;20050;-74
2022/12/10 11:50:58;;;;;;;85.65;44.33;;;;;;;;;;4988059;28;20561;-73
2022/12/10 11:53:38;;;;;;;87.47;44.00;;;;;;;;;;4988188;28;20129;-73
2022/12/10 11:56:23;;;;;;;88.18;45.22;;;;;;;;;;4973688;28;20147;-73
2022/12/10 11:58:52;;;;;;;85.03;44.45;;;;;;;;;;4990920;28;20074;-74
2022/12/10 12:01:21;;;;;;;75.68;40.40;;;;;;;;;;4991707;28;20081;-73
2022/12/10 12:04:05;;;;;;;108.20;54.92;;;;;;;;;;4993862;28;20054;-74
2022/12/10 12:06:57;;;;;;;94.25;48.03;;;;;;;;;;4991206;28;20054;-74
2022/12/10 12:09:23;;;;;;;91.75;47.38;;;;;;;;;;4982338;28;20077;-74
2022/12/10 12:11:58;;;;;;;128.95;61.55;;;;;;;;;;4991246;28;20043;-73
2022/12/10 12:14:26;;;;;;;94.68;50.28;;;;;;;;;;4986824;28;20059;-74
2022/12/10 12:17:01;;;;;;;84.10;45.20;;;;;;;;;;4986272;28;20088;-74
2022/12/10 12:19:40;;;;;;;85.25;43.58;;;;;;;;;;4984190;28;20069;-73
2022/12/10 12:22:18;;;;;;;85.35;44.05;;;;;;;;;;4988289;28;20647;-74
2022/12/10 12:24:48;;;;;;;86.55;42.95;;;;;;;;;;5022719;28;20068;-73
2022/12/10 12:27:22;;;;;;;83.93;42.70;;;;;;;;;;5046983;28;20081;-72
2022/12/10 12:29:56;;;;;;;79.47;42.95;;;;;;;;;;5045209;28;20048;-72
2022/12/10 12:32:25;;;;;;;85.60;44.28;;;;;;;;;;5046370;28;20099;-75
2022/12/10 12:34:53;;;;;;;85.97;41.70;;;;;;;;;;5029904;28;20056;-74
2022/12/10 12:37:22;;;;;;;91.47;44.28;;;;;;;;;;5048625;28;20059;-73
2022/12/10 12:40:04;;;;;;;85.53;41.50;;;;;;;;;;5030254;28;20037;-73
2022/12/10 12:42:34;;;;;;;88.85;42.00;;;;;;;;;;5044916;28;20095;-76
2022/12/10 12:45:03;;;;;;;82.40;42.50;;;;;;;;;;5047720;28;20107;-74
2022/12/10 12:47:29;;;;;;;87.40;42.33;;;;;;;;;;5028067;28;20441;-74
2022/12/10 12:49:57;;;;;;;81.47;41.55;;;;;;;;;;5044716;28;20469;-74
2022/12/10 12:52:29;;;;;;;81.75;40.38;;;;;;;;;;5013304;28;20079;-75
2022/12/10 12:54:57;;;;;;;89.18;41.85;;;;;;;;;;5038934;28;20041;-76
2022/12/10 12:57:36;;;;;;;80.75;39.75;;;;;;;;;;5044227;28;20041;-77
2022/12/10 13:00:18;;;;;;;86.03;41.08;;;;;;;;;;5047161;28;20442;-78
2022/12/10 13:02:59;;;;;;;91.43;41.15;;;;;;;;;;5044456;28;20762;-75
2022/12/10 13:05:25;;;;;;;83.47;40.70;;;;;;;;;;5047177;28;20118;-75
2022/12/10 13:08:10;;;;;;;83.55;39.30;;;;;;;;;;5046172;28;20438;-75
2022/12/10 13:10:51;;;;;;;81.45;39.28;;;;;;;;;;5046391;28;20044;-74
2022/12/10 13:13:24;;;;;;;88.05;41.58;;;;;;;;;;5048340;28;20041;-75
2022/12/10 13:15:50;;;;;;;93.07;41.20;;;;;;;;;;5046940;28;20037;-75
2022/12/10 13:18:18;;;;;;;94.30;43.25;;;;;;;;;;5052035;28;20037;-74
2022/12/10 13:20:44;;;;;;;96.25;44.92;;;;;;;;;;5051919;28;20398;-78
2022/12/10 13:23:25;;;;;;;102.25;43.20;;;;;;;;;;5049882;28;20090;-75
2022/12/10 13:25:57;;;;;;;94.57;41.10;;;;;;;;;;5050334;28;20033;-75
2022/12/10 13:28:26;;;;;;;95.18;45.25;;;;;;;;;;5045004;28;20487;-75
2022/12/10 13:31:04;;;;;;;96.32;43.03;;;;;;;;;;5045134;28;20057;-75
2022/12/10 13:33:46;;;;;;;102.78;45.67;;;;;;;;;;5046722;28;20056;-75
2022/12/10 13:36:12;;;;;;;100.15;44.63;;;;;;;;;;5046413;28;20041;-75
2022/12/10 13:38:42;;;;;;;99.50;44.17;;;;;;;;;;5043259;28;20041;-75
2022/12/10 13:46:54;;;;;;;102.75;45.95;;;;;;;;;;5044595;28;20056;-75
2022/12/10 13:49:23;;;;;;;94.30;43.63;;;;;;;;;;5026659;28;20049;-75
2022/12/10 13:51:52;;;;;;;104.28;44.70;;;;;;;;;;5045878;28;20044;-75
2022/12/10 13:54:28;;;;;;;100.55;44.05;;;;;;;;;;5012852;28;20609;-75
2022/12/10 13:57:00;;;;;;;91.03;44.15;;;;;;;;;;5027197;28;20041;-76
2022/12/10 13:59:48;;;;;;;90.10;40.78;;;;;;;;;;5045599;28;20056;-76
2022/12/10 14:02:20;;;;;;;78.43;37.38;;;;;;;;;;5032173;28;20076;-76
2022/12/10 14:05:00;;;;;;;77.78;36.80;;;;;;;;;;5031320;28;20046;-76
2022/12/10 14:07:26;;;;;;;62.88;33.22;;;;;;;;;;5031246;28;20053;-75
2022/12/10 14:09:58;;;;;;;68.35;36.50;;;;;;;;;;5025216;28;20049;-75
2022/12/10 14:12:50;;;;;;;67.38;35.72;;;;;;;;;;5049304;28;20045;-76
2022/12/10 14:15:24;;;;;;;71.88;36.15;;;;;;;;;;5029444;28;20498;-76
2022/12/10 14:17:52;;;;;;;74.03;37.15;;;;;;;;;;5029766;28;20612;-76
2022/12/10 14:20:20;;;;;;;74.55;37.67;;;;;;;;;;5033381;28;20053;-76
2022/12/10 14:22:50;;;;;;;80.45;37.45;;;;;;;;;;5051652;28;20056;-76
2022/12/10 14:25:18;;;;;;;78.43;38.47;;;;;;;;;;5052064;28;20491;-76
2022/12/10 14:27:44;;;;;;;74.68;36.17;;;;;;;;;;5051063;28;20072;-75
2022/12/10 14:30:26;;;;;;;69.88;35.38;;;;;;;;;;5031596;28;20056;-76
2022/12/10 14:32:52;;;;;;;;;;;;;;;;;;5032287;28;20041;-76
2022/12/10 14:35:23;;;;;;;69.35;35.20;;;;;;;;;;5033492;28;19928;-75
2022/12/10 14:37:50;;;;;;;71.97;33.72;;;;;;;;;;5046096;28;20040;-75
2022/12/10 14:40:22;;;;;;;71.95;36.22;;;;;;;;;;5033432;28;20136;-76
2022/12/10 14:42:48;;;;;;;69.72;35.00;;;;;;;;;;5050487;28;20126;-76
2022/12/10 14:45:15;;;;;;;69.88;35.10;;;;;;;;;;5030801;28;20080;-76